createdAt,value
2019-02-16T00:01:43.164Z,81.67
2019-02-16T00:04:13.590Z,80.40
2019-02-16T00:06:44.170Z,82.47
2019-02-16T00:09:14.659Z,76.67
2019-02-16T00:11:45.294Z,74.23
2019-02-16T00:14:15.794Z,78.13
2019-02-16T00:16:46.294Z,75.30
2019-02-16T00:19:16.779Z,72.50
2019-02-16T00:21:47.474Z,79.53
2019-02-16T00:24:17.940Z,74.60
2019-02-16T00:26:48.434Z,80.30
2019-02-16T00:29:18.910Z,77.50
2019-02-16T00:31:49.299Z,71.43
2019-02-16T00:34:19.703Z,78.70
2019-02-16T00:36:50.326Z,71.63
2019-02-16T00:39:20.914Z,76.33
2019-02-16T00:41:51.289Z,77.73
2019-02-16T00:44:21.822Z,71.30
2019-02-16T00:46:52.352Z,77.47
2019-02-16T00:49:22.894Z,75.10
2019-02-16T00:51:53.514Z,70.57
2019-02-16T00:54:23.864Z,62.57
2019-02-16T00:56:54.419Z,71.33
2019-02-16T00:59:35.429Z,74.87
2019-02-16T01:02:05.874Z,72.47
2019-02-16T01:04:36.354Z,68.93
2019-02-16T01:07:07.049Z,71.77
2019-02-16T01:09:37.434Z,65.17
2019-02-16T01:12:07.957Z,64.00
2019-02-16T01:14:38.519Z,66.07
2019-02-16T01:17:09.042Z,70.73
2019-02-16T01:19:39.514Z,81.83
2019-02-16T01:22:10.140Z,79.00
2019-02-16T01:24:40.869Z,73.80
2019-02-16T01:27:11.299Z,71.20
2019-02-16T01:29:42.119Z,75.70
2019-02-16T01:32:12.699Z,71.17
2019-02-16T01:34:43.154Z,82.57
2019-02-16T01:37:13.799Z,77.10
2019-02-16T01:39:44.357Z,79.00
2019-02-16T01:42:14.910Z,78.43
2019-02-16T01:44:45.574Z,82.87
2019-02-16T01:47:16.074Z,79.77
2019-02-16T01:49:47.249Z,83.30
2019-02-16T01:52:17.700Z,76.73
2019-02-16T01:54:48.081Z,66.30
2019-02-16T01:57:18.719Z,66.03
2019-02-16T01:59:49.193Z,70.77
2019-02-16T02:02:19.579Z,77.57
2019-02-16T02:04:50.113Z,73.23
2019-02-16T02:07:20.593Z,61.43
2019-02-16T02:09:51.179Z,68.07
2019-02-16T02:12:21.569Z,69.90
2019-02-16T02:14:52.119Z,68.97
2019-02-16T02:17:22.684Z,68.23
2019-02-16T02:19:53.394Z,59.80
2019-02-16T02:22:24.179Z,67.17
2019-02-16T02:24:54.524Z,72.57
2019-02-16T02:27:24.958Z,78.87
2019-02-16T02:29:55.434Z,71.70
2019-02-16T02:32:25.798Z,74.03
2019-02-16T02:34:56.449Z,73.60
2019-02-16T02:37:26.988Z,66.47
2019-02-16T02:39:57.464Z,66.50
2019-02-16T02:42:27.943Z,70.63
2019-02-16T02:44:58.296Z,72.90
2019-02-16T02:47:28.898Z,70.80
2019-02-16T02:49:59.339Z,61.20
2019-02-16T02:52:29.938Z,65.83
2019-02-16T02:55:00.400Z,66.97
2019-02-16T02:57:31.003Z,68.87
2019-02-16T03:00:01.614Z,73.03
2019-02-16T03:02:32.134Z,75.67
2019-02-16T03:05:02.474Z,72.43
2019-02-16T03:07:33.185Z,79.50
2019-02-16T03:10:03.719Z,76.20
2019-02-16T03:12:34.233Z,74.87
2019-02-16T03:15:05.013Z,74.97
2019-02-16T03:17:35.412Z,76.10
2019-02-16T03:20:06.041Z,76.57
2019-02-16T03:23:16.413Z,78.30
2019-02-16T03:25:53.437Z,80.50
2019-02-16T03:28:49.232Z,72.33
2019-02-16T03:32:09.470Z,73.63
2019-02-16T03:34:49.209Z,73.30
2019-02-16T03:38:02.584Z,66.83
2019-02-16T03:40:33.170Z,61.60
2019-02-16T03:43:03.566Z,61.77
2019-02-16T03:45:33.894Z,65.47
2019-02-16T03:48:04.304Z,63.20
2019-02-16T03:50:34.865Z,59.53
2019-02-16T03:53:05.241Z,59.93
2019-02-16T03:55:35.699Z,62.33
2019-02-16T03:58:06.135Z,56.57
2019-02-16T04:00:36.493Z,60.80
2019-02-16T04:03:06.934Z,65.87
2019-02-16T04:05:37.404Z,71.07
2019-02-16T04:08:07.854Z,68.63
2019-02-16T04:10:38.420Z,75.27
2019-02-16T04:13:08.861Z,73.47
2019-02-16T04:15:39.438Z,81.27
2019-02-16T04:18:09.894Z,81.87
2019-02-16T04:20:40.254Z,74.80
2019-02-16T04:23:10.639Z,76.67
2019-02-16T04:25:41.104Z,81.57
2019-02-16T04:28:11.454Z,80.80
2019-02-16T04:30:41.824Z,89.27
2019-02-16T04:33:12.439Z,85.77
2019-02-16T04:35:42.904Z,78.83
2019-02-16T04:38:13.392Z,86.47
2019-02-16T04:40:43.827Z,83.87
2019-02-16T04:43:14.343Z,83.73
2019-02-16T04:45:44.721Z,85.57
2019-02-16T04:48:15.288Z,81.03
2019-02-16T04:50:45.777Z,82.67
2019-02-16T04:53:16.219Z,88.27
2019-02-16T04:55:46.598Z,91.50
2019-02-16T04:58:16.934Z,78.03
2019-02-16T05:00:47.444Z,69.63
2019-02-16T05:03:17.854Z,85.13
2019-02-16T05:05:48.404Z,87.90
2019-02-16T05:08:19.014Z,76.23
2019-02-16T05:10:49.654Z,78.87
2019-02-16T05:13:20.055Z,87.03
2019-02-16T05:15:50.517Z,83.07
2019-02-16T05:18:21.224Z,123.63
2019-02-16T05:20:51.709Z,66.00
2019-02-16T05:23:22.135Z,131.40
2019-02-16T05:25:52.874Z,78.60
2019-02-16T05:28:23.249Z,73.13
2019-02-16T05:30:53.622Z,82.67
2019-02-16T05:33:24.175Z,71.93
2019-02-16T05:35:54.706Z,71.30
2019-02-16T05:38:25.090Z,62.40
2019-02-16T05:40:55.603Z,51.80
2019-02-16T05:43:26.106Z,64.70
2019-02-16T05:45:56.530Z,74.40
2019-02-16T05:48:27.128Z,53.23
2019-02-16T05:50:57.799Z,63.53
2019-02-16T05:53:28.404Z,49.27
2019-02-16T05:55:59.195Z,61.87
2019-02-16T05:58:29.884Z,91.57
2019-02-16T06:01:00.298Z,91.23
2019-02-16T06:03:30.905Z,79.40
2019-02-16T06:06:01.380Z,83.47
2019-02-16T06:08:31.864Z,88.00
2019-02-16T06:11:03.249Z,88.97
2019-02-16T06:13:33.749Z,72.73
2019-02-16T06:16:04.124Z,82.53
2019-02-16T06:18:34.699Z,90.17
2019-02-16T06:21:06.540Z,80.43
2019-02-16T06:23:37.005Z,68.33
2019-02-16T06:26:07.631Z,89.40
2019-02-16T06:28:38.114Z,90.13
2019-02-16T06:31:08.640Z,86.03
2019-02-16T06:33:39.413Z,89.60
2019-02-16T06:36:14.049Z,92.67
2019-02-16T06:38:44.914Z,82.83
2019-02-16T06:41:15.279Z,75.73
2019-02-16T06:43:45.674Z,79.90
2019-02-16T06:46:16.322Z,83.10
2019-02-16T06:48:46.788Z,79.70
2019-02-16T06:51:17.172Z,77.40
2019-02-16T06:53:47.855Z,80.53
2019-02-16T06:56:22.319Z,76.07
2019-02-16T06:58:52.993Z,76.67
2019-02-16T07:01:23.554Z,77.33
2019-02-16T07:03:53.954Z,81.47
2019-02-16T07:06:24.534Z,78.23
2019-02-16T07:08:55.089Z,76.83
2019-02-16T07:11:25.574Z,75.43
2019-02-16T07:13:56.119Z,71.43
2019-02-16T07:16:37.309Z,85.27
2019-02-16T07:19:35.970Z,81.23
2019-02-16T07:22:06.478Z,78.07
2019-02-16T07:24:37.018Z,82.57
2019-02-16T07:27:07.734Z,75.00
2019-02-16T07:29:38.119Z,81.83
2019-02-16T07:32:08.694Z,80.70
2019-02-16T07:34:39.387Z,82.83
2019-02-16T07:37:09.926Z,89.70
2019-02-16T07:39:40.506Z,78.57
2019-02-16T07:42:11.029Z,83.37
2019-02-16T07:44:48.855Z,79.57
2019-02-16T07:47:23.914Z,77.67
2019-02-16T07:50:19.338Z,90.37
2019-02-16T07:53:08.761Z,76.77
2019-02-16T07:55:56.234Z,76.30
2019-02-16T07:58:40.959Z,80.17
2019-02-16T08:01:19.554Z,84.30
2019-02-16T08:03:55.369Z,88.83
2019-02-16T08:06:45.055Z,79.43
2019-02-16T08:09:22.754Z,83.13
2019-02-16T08:12:04.659Z,78.90
2019-02-16T08:14:54.209Z,88.57
2019-02-16T08:17:33.143Z,81.57
2019-02-16T08:20:17.854Z,82.13
2019-02-16T08:22:56.101Z,80.17
2019-02-16T08:25:51.354Z,76.00
2019-02-16T08:28:43.546Z,78.63
2019-02-16T08:31:21.701Z,83.60
2019-02-16T08:34:07.208Z,82.03
2019-02-16T08:37:11.709Z,70.07
2019-02-16T08:40:19.269Z,74.00
2019-02-16T08:43:14.734Z,72.83
2019-02-16T08:46:02.453Z,73.43
2019-02-16T08:48:57.544Z,73.17
2019-02-16T08:51:46.824Z,71.93
2019-02-16T08:54:36.023Z,65.43
2019-02-16T08:57:25.178Z,69.20
2019-02-16T09:00:12.729Z,69.33
2019-02-16T09:03:11.994Z,76.83
2019-02-16T09:06:04.529Z,76.97
2019-02-16T09:08:52.111Z,82.50
2019-02-16T09:11:50.439Z,75.70
2019-02-16T09:14:38.389Z,73.50
2019-02-16T09:17:27.734Z,73.10
2019-02-16T09:20:34.851Z,72.67
2019-02-16T09:23:38.891Z,75.97
2019-02-16T09:26:26.439Z,81.07
2019-02-16T09:29:17.123Z,85.27
2019-02-16T09:32:03.705Z,85.50
2019-02-16T09:34:48.362Z,76.70
2019-02-16T09:37:36.309Z,83.67
2019-02-16T09:40:31.719Z,82.47
2019-02-16T09:43:35.774Z,84.43
2019-02-16T09:46:27.624Z,75.63
2019-02-16T09:49:22.984Z,85.97
2019-02-16T09:52:08.935Z,81.80
2019-02-16T09:54:48.774Z,75.50
2019-02-16T09:57:52.994Z,75.90
2019-02-16T10:00:42.330Z,76.27
2019-02-16T10:03:34.595Z,77.60
2019-02-16T10:06:18.769Z,80.23
2019-02-16T10:08:57.323Z,81.40
2019-02-16T10:11:52.045Z,77.97
2019-02-16T10:14:39.736Z,74.23
2019-02-16T10:17:17.394Z,75.77
2019-02-16T10:20:18.914Z,81.50
2019-02-16T10:23:14.183Z,73.73
2019-02-16T10:25:55.680Z,76.83
2019-02-16T10:28:46.044Z,78.13
2019-02-16T10:31:41.378Z,75.00
2019-02-16T10:34:23.354Z,85.77
2019-02-16T10:37:15.714Z,77.83
2019-02-16T10:40:06.345Z,79.90
2019-02-16T10:43:13.778Z,80.23
2019-02-16T10:46:08.809Z,81.07
2019-02-16T10:49:00.809Z,77.47
2019-02-16T10:51:40.624Z,70.23
2019-02-16T10:54:29.504Z,78.10
2019-02-16T10:57:16.174Z,75.80
2019-02-16T11:00:05.291Z,81.77
2019-02-16T11:02:51.638Z,80.73
2019-02-16T11:05:49.905Z,89.93
2019-02-16T11:08:29.309Z,89.37
2019-02-16T11:11:22.188Z,84.40
2019-02-16T11:14:10.143Z,82.93
2019-02-16T11:16:58.170Z,78.70
2019-02-16T11:19:41.684Z,73.17
2019-02-16T11:22:37.054Z,89.13
2019-02-16T11:25:38.398Z,82.40
2019-02-16T11:28:36.989Z,87.37
2019-02-16T11:31:44.589Z,87.43
2019-02-16T11:34:31.894Z,82.87
2019-02-16T11:37:26.809Z,83.57
2019-02-16T11:40:23.453Z,87.97
2019-02-16T11:43:25.069Z,97.40
2019-02-16T11:46:29.638Z,95.93
2019-02-16T11:49:25.115Z,95.10
2019-02-16T11:52:30.019Z,87.77
2019-02-16T11:55:08.964Z,85.23
2019-02-16T11:58:17.195Z,86.97
2019-02-16T12:01:05.511Z,87.93
2019-02-16T12:03:58.254Z,88.50
2019-02-16T12:07:02.895Z,92.63
2019-02-16T12:09:47.419Z,86.77
2019-02-16T12:12:26.864Z,87.50
2019-02-16T12:15:22.175Z,84.77
2019-02-16T12:18:14.307Z,84.53
2019-02-16T12:21:02.565Z,90.00
2019-02-16T12:23:39.550Z,85.77
2019-02-16T12:26:30.030Z,89.90
2019-02-16T12:29:18.675Z,89.57
2019-02-16T12:32:06.269Z,87.30
2019-02-16T12:34:58.629Z,83.67
2019-02-16T12:37:42.436Z,87.50
2019-02-16T12:40:31.760Z,92.60
2019-02-16T12:43:12.849Z,85.27
2019-02-16T12:45:55.555Z,89.77
2019-02-16T12:48:32.200Z,83.23
2019-02-16T12:51:10.389Z,83.27
2019-02-16T12:53:52.259Z,86.57
2019-02-16T12:56:50.861Z,88.17
2019-02-16T12:59:39.180Z,87.73
2019-02-16T13:02:34.520Z,89.93
2019-02-16T13:05:22.660Z,85.83
2019-02-16T13:08:17.975Z,84.93
2019-02-16T13:11:01.827Z,86.07
2019-02-16T13:13:39.034Z,82.67
2019-02-16T13:16:31.309Z,81.27
2019-02-16T13:19:29.575Z,86.47
2019-02-16T13:22:22.055Z,81.20
2019-02-16T13:25:26.296Z,82.43
2019-02-16T13:28:32.660Z,86.60
2019-02-16T13:31:28.339Z,85.93
2019-02-16T13:34:19.140Z,82.53
2019-02-16T13:37:08.905Z,83.60
2019-02-16T13:40:04.840Z,85.00
2019-02-16T13:42:57.140Z,81.73
2019-02-16T13:45:46.704Z,84.33
2019-02-16T13:48:22.114Z,82.80
2019-02-16T13:51:02.474Z,81.13
2019-02-16T13:54:03.984Z,89.23
2019-02-16T13:56:57.885Z,88.30
2019-02-16T14:00:02.612Z,82.67
2019-02-16T14:02:52.925Z,87.83
2019-02-16T14:05:39.355Z,78.50
2019-02-16T14:08:26.461Z,83.63
2019-02-16T14:11:16.194Z,83.63
2019-02-16T14:14:02.839Z,82.70
2019-02-16T14:16:54.924Z,88.87
2019-02-16T14:19:25.465Z,87.27
2019-02-16T14:21:56.140Z,82.70
2019-02-16T14:24:51.529Z,82.50
2019-02-16T14:27:23.229Z,82.77
2019-02-16T14:29:54.814Z,86.73
2019-02-16T14:32:26.124Z,83.03
2019-02-16T14:34:57.261Z,84.20
2019-02-16T14:37:50.544Z,83.70
2019-02-16T14:40:21.759Z,85.20
2019-02-16T14:42:52.909Z,83.93
2019-02-16T14:45:24.668Z,85.70
2019-02-16T14:47:56.147Z,87.83
2019-02-16T14:50:27.380Z,86.90
2019-02-16T14:52:58.085Z,82.07
2019-02-16T14:55:28.979Z,83.33
2019-02-16T14:57:59.553Z,77.30
2019-02-16T15:00:30.404Z,82.47
2019-02-16T15:03:01.384Z,82.23
2019-02-16T15:05:32.519Z,84.27
2019-02-16T15:08:03.094Z,85.53
2019-02-16T15:10:33.918Z,84.87
2019-02-16T15:13:04.544Z,82.13
2019-02-16T15:15:35.399Z,85.80
2019-02-16T15:18:06.191Z,85.33
2019-02-16T15:20:36.932Z,81.90
2019-02-16T15:23:07.663Z,87.00
2019-02-16T15:25:38.399Z,81.43
2019-02-16T15:28:09.180Z,80.97
2019-02-16T15:30:40.403Z,83.00
2019-02-16T15:33:11.458Z,80.33
2019-02-16T15:35:42.649Z,81.93
2019-02-16T15:38:13.459Z,82.40
2019-02-16T15:40:44.174Z,83.63
2019-02-16T15:43:14.823Z,85.27
2019-02-16T15:45:45.259Z,87.03
2019-02-16T15:48:16.218Z,83.87
2019-02-16T15:50:46.879Z,81.83
2019-02-16T15:53:17.824Z,82.03
2019-02-16T15:55:48.814Z,82.40
2019-02-16T15:58:19.424Z,81.13
2019-02-16T16:00:50.465Z,85.73
2019-02-16T16:03:21.132Z,85.77
2019-02-16T16:05:51.944Z,80.93
2019-02-16T16:08:44.413Z,86.03
2019-02-16T16:11:30.159Z,84.60
2019-02-16T16:14:19.084Z,85.03
2019-02-16T16:17:11.202Z,84.57
2019-02-16T16:19:47.920Z,88.50
2019-02-16T16:22:55.729Z,87.87
2019-02-16T16:25:43.860Z,91.07
2019-02-16T16:28:36.334Z,88.93
2019-02-16T16:31:30.962Z,90.53
2019-02-16T16:34:18.654Z,93.97
2019-02-16T16:37:08.374Z,89.97
2019-02-16T16:39:54.790Z,91.87
2019-02-16T16:42:48.684Z,88.47
2019-02-16T16:45:44.203Z,92.40
2019-02-16T16:48:27.019Z,93.77
2019-02-16T16:51:20.940Z,92.23
2019-02-16T16:54:00.221Z,96.50
2019-02-16T16:56:59.313Z,105.20
2019-02-16T16:59:47.544Z,103.77
2019-02-16T17:02:39.894Z,98.27
2019-02-16T17:05:32.764Z,96.60
2019-02-16T17:08:21.223Z,98.77
2019-02-16T17:11:00.655Z,94.90
2019-02-16T17:13:40.919Z,100.50
2019-02-16T17:16:33.654Z,96.33
2019-02-16T17:19:34.674Z,97.40
2019-02-16T17:22:25.654Z,98.93
2019-02-16T17:25:25.551Z,96.23
2019-02-16T17:28:13.844Z,94.40
2019-02-16T17:31:09.880Z,94.33
2019-02-16T17:34:04.924Z,97.17
2019-02-16T17:37:03.801Z,97.70
2019-02-16T17:39:46.814Z,104.13
2019-02-16T17:42:42.489Z,103.37
2019-02-16T17:45:35.724Z,96.33
2019-02-16T17:48:17.041Z,91.20
2019-02-16T17:51:06.849Z,99.97
2019-02-16T17:53:54.994Z,104.07
2019-02-16T17:56:58.950Z,101.23
2019-02-16T17:59:48.040Z,96.07
2019-02-16T18:02:41.314Z,100.93
2019-02-16T18:05:28.421Z,101.67
2019-02-16T18:08:22.215Z,97.10
2019-02-16T18:11:11.754Z,105.60
2019-02-16T18:14:10.784Z,101.03
2019-02-16T18:16:58.809Z,108.47
2019-02-16T18:20:00.369Z,99.10
2019-02-16T18:22:48.634Z,105.47
2019-02-16T18:25:28.944Z,100.67
2019-02-16T18:28:19.558Z,97.07
2019-02-16T18:31:12.439Z,94.60
2019-02-16T18:34:00.722Z,106.33
2019-02-16T18:36:50.580Z,107.03
2019-02-16T18:39:40.727Z,98.73
2019-02-16T18:42:30.540Z,104.63
2019-02-16T18:45:35.415Z,112.10
2019-02-16T18:48:20.278Z,104.43
2019-02-16T18:51:25.314Z,101.47
2019-02-16T18:54:20.817Z,106.53
2019-02-16T18:57:08.830Z,90.73
2019-02-16T19:00:10.807Z,91.83
2019-02-16T19:02:58.434Z,103.37
2019-02-16T19:05:59.980Z,99.07
2019-02-16T19:08:53.724Z,103.03
2019-02-16T19:11:52.164Z,102.97
2019-02-16T19:14:36.904Z,98.80
2019-02-16T19:17:31.260Z,105.67
2019-02-16T19:20:11.484Z,102.03
2019-02-16T19:23:10.107Z,110.30
2019-02-16T19:25:58.645Z,104.37
2019-02-16T19:28:47.024Z,107.50
2019-02-16T19:31:37.320Z,115.17
2019-02-16T19:34:23.171Z,106.20
2019-02-16T19:37:15.799Z,95.60
2019-02-16T19:39:56.709Z,108.90
2019-02-16T19:42:40.620Z,106.63
2019-02-16T19:45:29.900Z,105.97
2019-02-16T19:48:17.691Z,114.20
2019-02-16T19:50:57.275Z,117.63
2019-02-16T19:53:38.886Z,117.90
2019-02-16T19:56:36.799Z,110.97
2019-02-16T19:59:33.019Z,97.57
2019-02-16T20:02:22.999Z,103.87
2019-02-16T20:05:25.580Z,114.50
2019-02-16T20:08:18.448Z,110.67
2019-02-16T20:11:08.697Z,99.37
2019-02-16T20:13:58.223Z,96.70
2019-02-16T20:16:49.559Z,114.23
2019-02-16T20:19:40.205Z,125.73
2019-02-16T20:22:31.715Z,124.27
2019-02-16T20:25:26.359Z,121.27
2019-02-16T20:28:10.001Z,115.80
2019-02-16T20:31:09.488Z,122.30
2019-02-16T20:34:01.921Z,130.37
2019-02-16T20:36:51.919Z,132.63
2019-02-16T20:39:40.484Z,128.43
2019-02-16T20:42:28.865Z,130.67
2019-02-16T20:45:18.779Z,131.43
2019-02-16T20:48:24.149Z,125.23
2019-02-16T20:51:19.589Z,116.77
2019-02-16T20:54:12.254Z,105.20
2019-02-16T20:57:10.659Z,116.47
2019-02-16T21:00:04.569Z,124.10
2019-02-16T21:02:57.665Z,123.63
2019-02-16T21:05:47.529Z,132.00
2019-02-16T21:08:31.510Z,130.87
2019-02-16T21:11:26.939Z,126.70
2019-02-16T21:14:23.007Z,134.73
2019-02-16T21:17:11.359Z,129.83
2019-02-16T21:20:00.814Z,130.17
2019-02-16T21:22:55.767Z,141.50
2019-02-16T21:25:43.663Z,128.63
2019-02-16T21:28:32.099Z,138.33
2019-02-16T21:31:21.524Z,136.17
2019-02-16T21:33:58.084Z,130.33
2019-02-16T21:36:56.694Z,126.50
2019-02-16T21:39:49.335Z,130.13
2019-02-16T21:42:46.388Z,124.97
2019-02-16T21:45:36.239Z,112.13
2019-02-16T21:48:31.689Z,120.87
2019-02-16T21:51:20.544Z,122.67
2019-02-16T21:54:01.064Z,119.80
2019-02-16T21:57:03.027Z,104.43
2019-02-16T21:59:51.484Z,113.70
2019-02-16T22:02:39.934Z,123.40
2019-02-16T22:05:18.478Z,138.53
2019-02-16T22:08:02.719Z,122.67
2019-02-16T22:11:07.184Z,102.93
2019-02-16T22:13:38.362Z,127.30
2019-02-16T22:16:09.294Z,113.60
2019-02-16T22:18:39.849Z,104.43
2019-02-16T22:21:10.954Z,98.67
2019-02-16T22:23:42.050Z,116.93
2019-02-16T22:26:13.315Z,119.07
2019-02-16T22:28:44.574Z,132.13
2019-02-16T22:31:17.794Z,150.30
2019-02-16T22:33:48.414Z,125.93
2019-02-16T22:36:19.254Z,136.87
2019-02-16T22:38:50.254Z,139.13
2019-02-16T22:41:21.263Z,157.97
2019-02-16T22:43:52.115Z,154.20
2019-02-16T22:46:23.338Z,161.20
2019-02-16T22:49:14.364Z,165.83
2019-02-16T22:51:44.988Z,159.43
2019-02-16T22:54:15.724Z,176.27
2019-02-16T22:56:47.123Z,163.93
2019-02-16T22:59:17.979Z,161.87
2019-02-16T23:01:49.441Z,163.33
2019-02-16T23:04:20.394Z,165.03
2019-02-16T23:06:51.384Z,155.27
2019-02-16T23:09:29.848Z,156.63
2019-02-16T23:12:00.910Z,157.37
2019-02-16T23:14:31.720Z,154.90
2019-02-16T23:17:02.689Z,152.43
2019-02-16T23:19:33.564Z,162.80
2019-02-16T23:22:04.164Z,127.47
2019-02-16T23:24:35.119Z,128.60
2019-02-16T23:27:06.044Z,159.43
2019-02-16T23:29:37.055Z,170.57
2019-02-16T23:32:07.804Z,160.60
2019-02-16T23:34:38.434Z,159.00
2019-02-16T23:37:09.248Z,164.00
2019-02-16T23:39:39.878Z,174.97
2019-02-16T23:42:10.550Z,189.10
2019-02-16T23:44:41.384Z,158.20
2019-02-16T23:47:12.290Z,168.97
2019-02-16T23:49:43.223Z,171.23
2019-02-16T23:52:14.154Z,173.27
2019-02-16T23:54:44.716Z,179.37
2019-02-16T23:57:15.218Z,180.53
2019-02-16T23:59:45.999Z,168.93
